Time;durP1;ratioP1;P1;durP2;ratioP2;P2;SDS_P1;SDS_P2;PMS_P1;PMS_P2;Temp;Humidity;BMP_temperature;BMP_pressure;BME280_temperature;BME280_humidity;BME280_pressure;Samples;Min_cycle;Max_cycle;Signal;HPM_P1;HPM_P2
2023/03/08 00:00:16;;;;;;;19.85;10.52;;;;;;;6.97;61.20;98531.63;4891606;29;20027;-93
2023/03/08 00:02:42;;;;;;;18.08;9.68;;;;;;;6.90;61.39;98520.34;4890156;29;20031;-95
2023/03/08 00:05:08;;;;;;;21.00;10.32;;;;;;;6.91;61.09;98534.53;4890202;29;20038;-94
2023/03/08 00:07:44;;;;;;;17.63;9.70;;;;;;;6.69;61.43;98524.88;4889541;29;20119;-94
2023/03/08 00:10:10;;;;;;;17.55;9.40;;;;;;;6.65;62.14;98534.47;4892146;29;20036;-95
2023/03/08 00:12:37;;;;;;;18.35;10.07;;;;;;;6.62;62.32;98537.66;4889402;29;20028;-95
2023/03/08 00:15:05;;;;;;;21.85;10.50;;;;;;;6.50;62.22;98543.25;4889170;29;20083;-94
2023/03/08 00:18:31;;;;;;;22.77;10.63;;;;;;;6.49;61.94;98538.97;4890757;29;20048;-94
2023/03/08 00:21:09;;;;;;;20.08;10.20;;;;;;;6.39;62.51;98546.94;4914587;29;20050;-94
2023/03/08 00:23:44;;;;;;;18.35;10.55;;;;;;;6.30;62.89;98540.50;4909125;29;20160;-94
2023/03/08 00:26:13;;;;;;;23.92;11.93;;;;;;;6.35;62.62;98546.69;4894708;29;20038;-94
2023/03/08 00:28:48;;;;;;;31.73;12.85;;;;;;;6.27;62.51;98529.28;4904401;29;20078;-95
2023/03/08 00:31:14;;;;;;;27.20;11.90;;;;;;;6.22;62.57;98531.91;4910688;29;20501;-93
2023/03/08 00:33:40;;;;;;;32.35;11.68;;;;;;;6.22;62.24;98525.75;4909115;29;20066;-94
2023/03/08 00:36:16;;;;;;;19.20;10.73;;;;;;;6.28;62.50;98522.03;4924603;29;20506;-94
2023/03/08 00:38:45;;;;;;;21.88;11.82;;;;;;;6.32;62.56;98535.72;4910999;29;20034;-93
2023/03/08 00:41:19;;;;;;;20.58;11.82;;;;;;;6.19;62.88;98523.63;4909659;29;20038;-93
2023/03/08 00:43:51;;;;;;;23.55;11.23;;;;;;;6.14;62.98;98529.72;4909327;29;20130;-94
2023/03/08 00:46:20;;;;;;;22.00;11.70;;;;;;;6.13;63.10;98527.34;4893832;29;20035;-94
2023/03/08 00:48:49;;;;;;;22.65;12.65;;;;;;;6.12;63.00;98534.56;4892926;29;20115;-95
2023/03/08 00:51:18;;;;;;;28.83;11.93;;;;;;;6.08;63.39;98522.78;4909621;29;20035;-94
2023/03/08 00:53:47;;;;;;;21.27;11.70;;;;;;;6.07;63.36;98529.19;4893714;29;20397;-94
2023/03/08 00:56:25;;;;;;;24.52;11.98;;;;;;;6.01;63.51;98525.66;4894419;29;20039;-93
2023/03/08 00:58:52;;;;;;;27.08;11.55;;;;;;;6.00;63.97;98520.59;4910803;29;20024;-94
2023/03/08 01:01:18;;;;;;;21.02;12.07;;;;;;;6.09;63.64;98534.25;4908844;29;20039;-93
2023/03/08 01:03:44;;;;;;;21.48;11.13;;;;;;;5.82;63.91;98519.13;4908060;29;20095;-95
2023/03/08 01:06:24;;;;;;;20.05;11.90;;;;;;;5.87;63.88;98537.84;4908966;29;20422;-94
2023/03/08 01:09:12;;;;;;;24.73;12.38;;;;;;;5.85;64.24;98546.13;4911586;29;20030;-93
2023/03/08 01:11:46;;;;;;;24.73;12.15;;;;;;;5.63;64.16;98524.88;4924900;29;20028;-94
2023/03/08 01:14:15;;;;;;;22.60;12.48;;;;;;;5.66;64.22;98543.06;4909900;29;20106;-94
2023/03/08 01:16:49;;;;;;;18.95;11.23;;;;;;;5.49;64.78;98542.41;4908599;29;20024;-94
2023/03/08 01:19:15;;;;;;;25.40;12.52;;;;;;;5.45;64.64;98538.63;4893993;29;20486;-96
2023/03/08 01:22:29;;;;;;;23.55;13.02;;;;;;;5.33;65.34;98525.44;4908275;29;20111;-94
2023/03/08 01:25:04;;;;;;;22.25;11.18;;;;;;;5.30;65.30;98531.31;4928918;29;20035;-92
2023/03/08 01:27:47;;;;;;;23.58;12.27;;;;;;;5.26;65.40;98532.88;4905598;29;20042;-94
2023/03/08 01:30:16;;;;;;;26.40;13.45;;;;;;;5.23;65.34;98536.06;4892635;29;20036;-93
2023/03/08 01:32:47;;;;;;;27.00;12.93;;;;;;;5.08;65.99;98542.06;4893650;29;20027;-94
2023/03/08 01:35:13;;;;;;;26.00;14.23;;;;;;;5.15;65.91;98541.88;4892441;29;20035;-94
2023/03/08 01:38:09;;;;;;;27.23;14.93;;;;;;;5.14;65.14;98532.25;4893084;29;20027;-95
2023/03/08 01:40:38;;;;;;;24.55;14.00;;;;;;;5.28;64.52;98521.94;4912054;29;20019;-94
2023/03/08 01:43:24;;;;;;;32.67;16.98;;;;;;;5.23;64.48;98514.72;4908188;29;20027;-94
2023/03/08 01:46:24;;;;;;;37.97;17.90;;;;;;;5.37;64.71;98534.56;4893465;29;20032;-93
2023/03/08 01:48:58;;;;;;;39.30;20.23;;;;;;;5.33;64.95;98540.66;4907528;29;20038;-93
2023/03/08 01:51:41;;;;;;;35.17;17.60;;;;;;;5.34;65.36;98547.63;4922959;29;20028;-92
2023/03/08 01:54:11;;;;;;;33.03;17.27;;;;;;;5.10;65.56;98512.47;4906607;29;20032;-93
2023/03/08 01:56:40;;;;;;;34.00;17.98;;;;;;;5.29;64.70;98540.38;4891359;29;20054;-94
2023/03/08 01:59:12;;;;;;;41.40;19.73;;;;;;;5.21;65.71;98522.19;4891792;29;20034;-93
2023/03/08 02:01:43;;;;;;;43.13;19.40;;;;;;;5.18;65.01;98523.47;4892769;29;20055;-92
2023/03/08 02:04:09;;;;;;;39.70;18.55;;;;;;;5.10;65.76;98520.47;4891788;29;20040;-93
2023/03/08 02:06:35;;;;;;;32.65;16.80;;;;;;;5.04;65.48;98522.28;4906560;29;20111;-93
2023/03/08 02:09:03;;;;;;;31.73;15.00;;;;;;;5.01;65.82;98520.13;4891506;29;20038;-93
2023/03/08 02:11:30;;;;;;;29.27;15.35;;;;;;;4.94;66.03;98515.00;4891939;29;20417;-94
2023/03/08 02:13:56;;;;;;;33.75;16.02;;;;;;;4.99;65.98;98532.91;4891107;29;20023;-93
2023/03/08 02:16:21;;;;;;;32.75;15.57;;;;;;;4.84;66.01;98502.38;4907187;29;20167;-93
2023/03/08 02:18:54;;;;;;;28.85;15.73;;;;;;;5.02;65.73;98535.06;4891041;29;20059;-93
2023/03/08 02:21:30;;;;;;;27.48;14.50;;;;;;;4.80;65.78;98492.47;4906348;29;20031;-93
2023/03/08 02:24:01;;;;;;;24.20;13.60;;;;;;;5.03;65.90;98524.13;4893201;29;20050;-93
2023/03/08 02:26:27;;;;;;;29.52;14.63;;;;;;;5.03;65.66;98534.00;4891848;29;20066;-94
2023/03/08 02:28:58;;;;;;;23.85;13.32;;;;;;;4.91;66.02;98520.03;4901565;29;20524;-93
2023/03/08 02:31:26;;;;;;;22.25;13.48;;;;;;;4.86;66.22;98521.59;4906923;29;20032;-93
2023/03/08 02:33:57;;;;;;;27.40;12.73;;;;;;;4.84;66.38;98547.69;4906097;29;20120;-94
2023/03/08 02:36:38;;;;;;;23.03;12.60;;;;;;;4.75;66.54;98524.41;4911291;29;20409;-93
2023/03/08 02:39:11;;;;;;;24.88;12.60;;;;;;;4.76;66.61;98540.16;4893610;29;20279;-95
2023/03/08 02:41:40;;;;;;;21.77;11.98;;;;;;;4.84;66.57;98545.03;4907788;29;20028;-92
2023/03/08 02:44:09;;;;;;;20.10;10.90;;;;;;;4.83;65.74;98538.06;4922115;29;20413;-95
2023/03/08 02:46:41;;;;;;;22.65;12.27;;;;;;;4.81;65.82;98544.72;4890420;29;20055;-94
2023/03/08 02:49:12;;;;;;;24.70;12.25;;;;;;;4.58;66.51;98530.63;4906921;29;20127;-94
2023/03/08 02:51:49;;;;;;;20.77;11.73;;;;;;;4.48;66.28;98529.69;4906426;29;20039;-93
2023/03/08 02:54:18;;;;;;;22.13;12.10;;;;;;;4.50;66.40;98555.06;4908063;29;20401;-93
2023/03/08 03:00:10;;;;;;;23.23;11.77;;;;;;;4.45;65.97;98513.16;4938518;29;20035;-92
2023/03/08 03:02:49;;;;;;;22.75;12.25;;;;;;;4.60;66.22;98546.38;4920863;29;20130;-94
2023/03/08 03:05:26;;;;;;;22.75;11.93;;;;;;;4.39;67.25;98548.00;4906543;29;20032;-93
2023/03/08 03:08:13;;;;;;;24.67;13.00;;;;;;;4.33;67.02;98543.66;4906484;29;20058;-94
2023/03/08 03:10:45;;;;;;;23.00;11.23;;;;;;;4.48;66.72;98557.16;4909450;29;20027;-93
2023/03/08 03:13:14;;;;;;;;;;;;;;;4.59;66.58;98560.78;4906473;29;20028;-94
2023/03/08 03:15:40;;;;;;;27.83;13.77;;;;;;;4.49;66.52;98560.66;4905639;29;20369;-94
2023/03/08 03:18:11;;;;;;;23.55;12.73;;;;;;;4.62;66.24;98563.72;4904524;29;20046;-94
2023/03/08 03:20:46;;;;;;;29.58;12.32;;;;;;;4.58;66.77;98569.81;4921142;29;20455;-94
2023/03/08 03:23:20;;;;;;;20.90;11.60;;;;;;;4.56;66.18;98556.72;4921785;29;20031;-95
2023/03/08 03:25:52;;;;;;;26.60;14.15;;;;;;;4.53;66.93;98573.22;4892210;29;20048;-94
2023/03/08 03:28:26;;;;;;;24.10;14.48;;;;;;;4.44;66.75;98570.19;4906578;29;20052;-93
2023/03/08 03:30:53;;;;;;;31.55;14.07;;;;;;;4.30;66.85;98565.50;4922834;29;20055;-94
2023/03/08 03:33:22;;;;;;;31.70;15.05;;;;;;;4.19;67.62;98569.84;4906419;29;20090;-95
2023/03/08 03:36:08;;;;;;;28.17;14.00;;;;;;;4.14;67.25;98569.81;4906697;29;20058;-94
2023/03/08 03:38:37;;;;;;;24.10;13.77;;;;;;;4.12;67.54;98571.91;4893050;29;20094;-93
2023/03/08 03:41:18;;;;;;;28.40;14.48;;;;;;;4.06;68.00;98573.69;4907321;29;20030;-94
2023/03/08 03:43:48;;;;;;;32.80;13.98;;;;;;;4.24;67.14;98589.38;4908269;29;20118;-93
2023/03/08 03:46:18;;;;;;;28.15;13.90;;;;;;;4.05;67.35;98580.88;4890296;29;20024;-92
2023/03/08 03:48:44;;;;;;;28.88;14.57;;;;;;;3.96;67.61;98576.19;4890351;29;20035;-93
2023/03/08 03:51:31;;;;;;;24.60;13.88;;;;;;;4.10;68.02;98612.09;4904872;29;20050;-93
2023/03/08 03:54:02;;;;;;;27.35;14.40;;;;;;;4.13;67.46;98600.16;4920564;29;20028;-93
2023/03/08 03:56:34;;;;;;;27.33;13.88;;;;;;;4.25;67.41;98609.66;4904970;29;20489;-93
2023/03/08 03:59:20;;;;;;;27.77;14.52;;;;;;;4.33;66.66;98594.28;4906436;29;20123;-94
2023/03/08 04:01:46;;;;;;;26.60;12.85;;;;;;;4.41;66.34;98608.00;4910470;29;20139;-95
2023/03/08 04:04:17;;;;;;;26.67;13.80;;;;;;;4.30;67.15;98598.25;4905046;29;20036;-95
2023/03/08 04:10:15;;;;;;;23.38;12.05;;;;;;;4.13;67.33;98603.63;4915501;29;20028;-94
2023/03/08 04:13:05;;;;;;;23.17;11.93;;;;;;;4.06;67.79;98597.66;4923907;29;20079;-94
2023/03/08 04:15:57;;;;;;;20.52;11.40;;;;;;;4.13;67.41;98619.63;4922111;29;20091;-95
2023/03/08 04:19:05;;;;;;;23.60;11.40;;;;;;;4.09;67.86;98623.00;4942820;29;20044;-94
2023/03/08 04:21:53;;;;;;;23.83;11.68;;;;;;;4.09;67.92;98615.84;4955978;29;20024;-94
2023/03/08 04:25:03;;;;;;;25.08;12.18;;;;;;;4.16;67.44;98618.31;4954939;29;20039;-93
2023/03/08 04:28:09;;;;;;;23.77;12.13;;;;;;;4.10;67.36;98621.97;4929834;28;20039;-94
2023/03/08 04:31:43;;;;;;;24.63;11.65;;;;;;;3.95;67.61;98610.03;4879782;29;20045;-93
2023/03/08 04:34:59;;;;;;;23.63;11.25;;;;;;;3.95;68.23;98626.00;4825324;29;20633;-93
2023/03/08 04:38:33;;;;;;;22.35;11.88;;;;;;;3.87;67.87;98614.97;4849059;29;20097;-95
2023/03/08 04:41:33;;;;;;;22.05;10.40;;;;;;;3.90;68.03;98620.63;4816357;29;20090;-95
2023/03/08 04:48:01;;;;;;;25.33;11.73;;;;;;;4.06;67.49;98626.97;4822733;29;20595;-95
2023/03/08 04:51:33;;;;;;;28.50;12.18;;;;;;;4.00;67.93;98625.28;4783517;29;20054;-93
2023/03/08 04:57:48;;;;;;;20.20;10.77;;;;;;;4.00;67.64;98622.59;4816931;29;20042;-94
2023/03/08 05:00:31;;;;;;;26.85;12.18;;;;;;;4.04;67.11;98611.22;4803828;29;20047;-94
2023/03/08 05:03:11;;;;;;;28.75;12.20;;;;;;;4.01;66.58;98598.41;4804921;29;20043;-94
2023/03/08 05:06:06;;;;;;;27.60;12.07;;;;;;;4.17;66.94;98635.91;4820548;29;20057;-95
2023/03/08 05:08:46;;;;;;;23.38;11.05;;;;;;;4.14;66.86;98633.75;4825877;29;20414;-95
2023/03/08 05:11:38;;;;;;;32.95;13.13;;;;;;;4.27;66.73;98632.59;4903553;29;20140;-93
2023/03/08 05:14:39;;;;;;;29.38;13.68;;;;;;;4.24;66.18;98628.56;4894166;29;20032;-95
2023/03/08 05:17:58;;;;;;;23.20;11.07;;;;;;;4.30;66.17;98637.44;4902767;29;20032;-94
2023/03/08 05:20:57;;;;;;;25.25;11.65;;;;;;;4.16;66.98;98624.44;4915347;29;20040;-93
2023/03/08 05:23:44;;;;;;;23.05;11.05;;;;;;;4.06;66.96;98632.28;4907659;29;20038;-95
2023/03/08 05:26:17;;;;;;;28.33;12.05;;;;;;;4.20;66.32;98616.78;4919742;29;20032;-92
2023/03/08 05:29:16;;;;;;;30.73;13.10;;;;;;;4.40;65.84;98637.53;4899977;29;20142;-94
2023/03/08 05:31:51;;;;;;;24.33;11.05;;;;;;;4.46;65.85;98628.56;4918707;29;20040;-93
2023/03/08 05:34:53;;;;;;;29.92;13.80;;;;;;;4.51;66.13;98636.66;5049005;23;20071;-93
2023/03/08 05:37:40;;;;;;;24.00;11.07;;;;;;;4.56;66.04;98644.69;4932310;29;20031;-93
2023/03/08 05:40:15;;;;;;;19.88;10.70;;;;;;;4.54;66.20;98659.34;4905812;29;20570;-93
2023/03/08 05:42:45;;;;;;;35.13;15.90;;;;;;;4.51;65.86;98627.84;4902885;29;20058;-94
2023/03/08 05:45:20;;;;;;;25.33;10.43;;;;;;;4.74;65.24;98645.47;4911487;29;20462;-95
2023/03/08 05:47:51;;;;;;;34.15;12.13;;;;;;;4.72;65.23;98640.38;4912274;29;20432;-92
2023/03/08 05:50:20;;;;;;;26.33;11.85;;;;;;;4.65;65.53;98635.22;4890910;29;20095;-94
2023/03/08 05:52:46;;;;;;;27.38;11.43;;;;;;;4.77;64.97;98636.94;4894613;29;20465;-93
2023/03/08 05:55:12;;;;;;;29.58;12.05;;;;;;;4.91;64.82;98646.19;4894509;29;20063;-95
2023/03/08 05:57:40;;;;;;;35.10;13.70;;;;;;;5.06;65.04;98654.38;4894499;29;20450;-93
2023/03/08 06:00:07;;;;;;;38.95;14.55;;;;;;;5.16;65.08;98663.53;4909885;29;20048;-94
2023/03/08 06:02:32;;;;;;;34.25;14.35;;;;;;;5.21;64.75;98647.59;4893563;29;20041;-94
2023/03/08 06:05:07;;;;;;;31.02;14.05;;;;;;;5.43;64.39;98677.69;4901295;28;20036;-95
2023/03/08 06:07:33;;;;;;;27.73;12.98;;;;;;;5.60;64.43;98679.47;4912975;29;20028;-95
2023/03/08 06:10:11;;;;;;;;;;;;;;;;;;;;;
2023/03/08 06:12:43;;;;;;;31.40;15.40;;;;;;;5.82;63.08;98658.84;4921670;29;20104;-95
2023/03/08 06:15:11;;;;;;;25.05;12.90;;;;;;;6.13;62.68;98664.44;4912900;29;20067;-93
2023/03/08 06:17:36;;;;;;;36.17;14.07;;;;;;;6.19;62.76;98687.47;4900326;29;20039;-93
2023/03/08 06:20:02;;;;;;;45.78;19.52;;;;;;;6.20;62.20;98690.94;4894445;29;20027;-95
2023/03/08 06:22:28;;;;;;;33.47;13.23;;;;;;;6.22;62.28;98673.56;4892494;29;20059;-94
2023/03/08 06:24:56;;;;;;;31.67;13.82;;;;;;;6.31;61.40;98668.59;4894555;29;20458;-93
2023/03/08 06:27:24;;;;;;;26.98;12.93;;;;;;;6.59;60.99;98670.06;4894495;29;20031;-95
2023/03/08 06:30:26;;;;;;;32.88;13.27;;;;;;;7.01;59.88;98695.94;4896924;29;20604;-94
2023/03/08 06:32:52;;;;;;;29.52;12.60;;;;;;;6.82;60.25;98690.25;4912962;29;20036;-94
2023/03/08 06:35:19;;;;;;;24.67;12.55;;;;;;;7.14;59.96;98692.00;4899792;29;20055;-96
2023/03/08 06:37:55;;;;;;;28.02;14.68;;;;;;;7.38;58.78;98705.72;4907495;29;20032;-95
2023/03/08 06:40:38;;;;;;;33.28;12.90;;;;;;;7.76;58.20;98702.81;5054373;23;20092;-91
2023/03/08 06:43:12;;;;;;;33.67;14.20;;;;;;;8.19;56.67;98720.28;4882046;29;20064;-90
2023/03/08 07:28:50;;;;;;;;;;;;;;;;;;;;;
2023/03/08 07:31:35;;;;;;;;;;;;;;;;;;;;;
2023/03/08 07:37:18;;;;;;;20.60;11.15;;;;;;;10.31;51.29;98772.94;4870292;29;20471;-95
2023/03/08 07:40:35;;;;;;;22.20;11.00;;;;;;;10.35;49.84;98782.03;4863636;29;20041;-96
2023/03/08 07:43:49;;;;;;;19.85;11.50;;;;;;;10.45;49.16;98771.19;4836953;29;20541;-95
2023/03/08 07:47:03;;;;;;;24.10;13.02;;;;;;;10.41;49.19;98745.13;4763681;30;20045;-94
2023/03/08 07:49:35;;;;;;;18.75;10.77;;;;;;;10.76;48.83;98773.63;4718947;29;20432;-92
2023/03/08 07:52:35;;;;;;;21.52;10.80;;;;;;;10.97;48.28;98771.50;4872566;29;20048;-94
2023/03/08 07:55:59;;;;;;;16.75;11.02;;;;;;;11.10;47.10;98770.84;4786587;30;20039;-94
2023/03/08 07:59:10;;;;;;;21.25;11.65;;;;;;;11.03;47.03;98764.19;4806702;29;20067;-95
2023/03/08 08:02:34;;;;;;;18.55;11.50;;;;;;;11.20;47.03;98759.13;4997941;23;20036;-94
2023/03/08 08:05:36;;;;;;;20.70;11.65;;;;;;;11.42;46.03;98741.63;4918339;29;20048;-95
2023/03/08 08:08:02;;;;;;;;;;;;;;;11.72;45.33;98765.50;5052213;23;20061;-93
2023/03/08 08:10:39;;;;;;;27.02;16.73;;;;;;;11.67;44.18;98729.72;4866516;29;19915;-95
2023/03/08 08:17:19;;;;;;;28.88;12.70;;;;;;;12.22;42.76;98745.34;4839409;29;20069;-95
2023/03/08 08:20:06;;;;;;;;;;;;;;;;;;;;;
2023/03/08 08:23:01;;;;;;;17.80;8.38;;;;;;;12.67;41.76;98757.28;4826850;29;20081;-94
2023/03/08 08:26:32;;;;;;;13.48;8.20;;;;;;;12.80;41.68;98730.59;4809100;29;20038;-94
2023/03/08 08:32:19;;;;;;;16.58;9.35;;;;;;;13.19;41.16;98730.09;4812200;29;20102;-93
2023/03/08 08:35:07;;;;;;;17.40;9.15;;;;;;;13.43;41.26;98742.63;4820054;29;20037;-94
2023/03/08 08:45:16;;;;;;;16.33;9.60;;;;;;;13.95;40.68;98740.41;4895021;23;20048;-94
2023/03/08 08:47:53;;;;;;;12.32;7.38;;;;;;;14.04;40.03;98727.72;4934078;29;20040;-92
2023/03/08 08:50:45;;;;;;;20.88;8.65;;;;;;;14.23;40.07;98738.38;4896121;29;20060;-94
2023/03/08 08:53:32;;;;;;;11.73;6.60;;;;;;;14.42;39.44;98740.09;4914668;29;20027;-94
2023/03/08 08:55:58;;;;;;;19.05;7.00;;;;;;;14.56;39.27;98743.53;4914752;29;20038;-95
2023/03/08 08:58:27;;;;;;;11.27;6.40;;;;;;;14.59;39.03;98712.31;4898064;29;20020;-94
2023/03/08 10:23:30;;;;;;;3.28;1.35;;;;;;;16.20;34.02;98689.97;4955896;23;20098;-93
2023/03/08 10:26:46;;;;;;;3.20;2.05;;;;;;;16.21;34.18;98682.59;4910233;29;20082;-95
2023/03/08 10:29:12;;;;;;;2.88;1.63;;;;;;;16.23;33.95;98689.34;4924835;29;20019;-92
2023/03/08 10:32:06;;;;;;;4.85;3.17;;;;;;;16.34;34.66;98668.84;4907809;29;20027;-94
2023/03/08 10:34:33;;;;;;;3.30;1.70;;;;;;;16.48;33.21;98690.38;4926220;29;20043;-94
2023/03/08 10:37:06;;;;;;;9.00;3.30;;;;;;;16.56;33.73;98670.53;4909459;29;20462;-93
2023/03/08 10:39:43;;;;;;;4.82;2.10;;;;;;;16.91;32.75;98672.31;4909555;29;20046;-95
2023/03/08 10:42:21;;;;;;;5.20;1.52;;;;;;;17.04;31.65;98670.53;4908229;29;20039;-93
2023/03/08 10:45:05;;;;;;;2.47;1.40;;;;;;;17.17;32.02;98672.97;4921452;29;20031;-93
2023/03/08 11:34:48;;;;;;;2.40;1.25;;;;;;;18.52;27.39;98615.53;2283193;23;20306;-92
2023/03/08 11:48:32;;;;;;;3.30;1.25;;;;;;;17.57;28.72;98601.75;5999662;22;5579666;-95
2023/03/08 11:51:14;;;;;;;4.57;1.40;;;;;;;17.39;28.90;98622.13;6210988;23;20008;-94
2023/03/08 11:53:47;;;;;;;;;;;;;;;17.38;28.59;98626.75;6210874;23;20011;-93
2023/03/08 11:59:48;;;;;;;3.20;1.25;;;;;;;17.22;28.57;98603.19;6232024;22;20020;-92
2023/03/08 12:02:44;;;;;;;4.18;1.73;;;;;;;17.34;28.65;98606.75;6158719;23;20016;-94
2023/03/08 12:05:38;;;;;;;5.90;2.33;;;;;;;17.40;28.87;98612.03;6181889;23;20004;-96
2023/03/08 12:08:52;;;;;;;4.47;2.30;;;;;;;17.42;29.19;98607.03;6183031;23;20060;-95
2023/03/08 12:11:53;;;;;;;3.55;1.80;;;;;;;17.53;28.97;98600.06;6196975;23;19997;-96
2023/03/08 12:14:33;;;;;;;6.50;1.60;;;;;;;17.45;28.48;98599.00;6182236;23;20315;-92
2023/03/08 12:17:59;;;;;;;5.28;1.58;;;;;;;17.54;28.08;98598.94;6164962;23;20019;-94
2023/03/08 12:47:04;;;;;;;4.22;1.50;;;;;;;17.56;26.73;98553.91;6242547;22;20032;-96
2023/03/08 12:58:19;;;;;;;2.10;1.20;;;;;;;17.63;26.11;98568.91;6192199;22;20002;-93
2023/03/08 13:04:24;;;;;;;4.95;2.10;;;;;;;17.62;25.97;98557.22;6190933;22;20032;-93
2023/03/08 13:07:25;;;;;;;4.65;2.58;;;;;;;17.83;25.55;98570.03;6135548;23;20013;-91
2023/03/08 14:21:20;;;;;;;2.53;1.60;;;;;;;17.93;26.05;98542.38;6180963;23;20035;-95
2023/03/08 14:24:19;;;;;;;11.15;2.10;;;;;;;17.89;26.23;98538.72;6134626;22;20021;-94
2023/03/08 14:27:24;;;;;;;;;;;;;;;;;;;;;
2023/03/08 14:30:31;;;;;;;2.53;1.38;;;;;;;17.69;26.80;98532.19;6177867;23;20020;-94
2023/03/08 14:48:03;;;;;;;;;;;;;;;;;;;;;
2023/03/08 14:51:31;;;;;;;4.25;1.55;;;;;;;17.57;26.83;98547.31;6089173;23;20049;-95
2023/03/08 15:09:52;;;;;;;2.42;1.30;;;;;;;17.07;27.29;98550.16;6139023;23;20036;-95
2023/03/08 15:34:53;;;;;;;4.80;1.52;;;;;;;16.33;28.02;98539.56;6144070;23;20027;-94
2023/03/08 15:38:22;;;;;;;10.38;2.45;;;;;;;16.38;28.50;98551.38;6096255;23;20018;-95
2023/03/08 15:47:24;;;;;;;7.78;1.90;;;;;;;16.12;28.50;98539.50;6183531;23;20098;-94
2023/03/08 15:50:41;;;;;;;;;;;;;;;;;;;;;
2023/03/08 16:41:23;;;;;;;26.08;9.85;;;;;;;14.41;34.59;98584.91;6171954;22;20358;-93
2023/03/08 16:50:27;;;;;;;20.67;8.23;;;;;;;14.18;34.42;98592.31;6211584;22;20023;-95
2023/03/08 16:53:47;;;;;;;19.08;7.10;;;;;;;14.02;34.84;98586.47;6211794;23;20048;-95
2023/03/08 17:01:57;;;;;;;26.40;13.32;;;;;;;13.80;35.52;98592.75;6149853;23;20026;-93
2023/03/08 17:04:43;;;;;;;28.55;14.02;;;;;;;13.67;36.37;98577.34;6147851;23;20010;-93
2023/03/08 17:07:18;;;;;;;39.92;18.83;;;;;;;13.60;36.55;98588.63;6097831;23;19986;-96
2023/03/08 17:09:49;;;;;;;44.75;25.42;;;;;;;13.55;36.44;98594.16;6103028;23;19992;-94
2023/03/08 17:15:43;;;;;;;37.75;18.05;;;;;;;13.54;36.99;98628.50;6061614;23;20016;-94
2023/03/08 17:25:25;;;;;;;50.05;21.15;;;;;;;13.29;37.66;98634.50;6139251;22;20044;-95
2023/03/08 17:27:58;;;;;;;;;;;;;;;13.20;38.63;98639.81;6178039;23;19997;-94
2023/03/08 17:30:56;;;;;;;;;;;;;;;;;;;;;
2023/03/08 17:33:25;;;;;;;60.30;23.85;;;;;;;12.98;38.77;98635.13;6108470;23;20024;-94
2023/03/08 17:36:00;;;;;;;52.38;23.77;;;;;;;13.01;39.39;98641.81;6119901;23;20087;-95
2023/03/08 17:38:26;;;;;;;60.55;24.45;;;;;;;12.96;39.25;98640.03;6146940;23;20025;-93
2023/03/08 17:41:19;;;;;;;49.67;24.25;;;;;;;12.97;39.49;98648.94;6130170;23;20020;-94
2023/03/08 18:28:26;;;;;;;34.28;14.52;;;;;;;12.06;42.29;98656.56;6206500;23;20109;-95
2023/03/08 20:42:42;;;;;;;47.92;25.48;;;;;;;10.78;47.43;98708.72;6173877;22;20102;-91
2023/03/08 20:45:08;;;;;;;42.67;21.58;;;;;;;10.81;47.07;98706.25;6137388;23;20016;-95
2023/03/08 20:47:33;;;;;;;41.25;20.92;;;;;;;10.88;47.07;98709.41;6112505;23;20547;-93
2023/03/08 20:49:59;;;;;;;33.83;17.13;;;;;;;10.85;46.81;98709.97;6112525;23;20001;-93
2023/03/08 20:52:25;;;;;;;51.10;23.98;;;;;;;10.81;47.52;98716.22;6113052;23;20032;-94
2023/03/08 20:54:51;;;;;;;48.75;20.98;;;;;;;10.82;46.92;98702.47;6112879;23;20005;-93
2023/03/08 20:57:17;;;;;;;45.67;21.55;;;;;;;10.91;47.10;98708.84;6112973;23;20496;-93
2023/03/08 20:59:42;;;;;;;45.42;19.95;;;;;;;10.86;47.04;98705.41;6112671;23;20004;-93
2023/03/08 21:02:13;;;;;;;72.22;35.42;;;;;;;10.89;47.39;98710.19;6113489;23;20001;-94
2023/03/08 21:04:41;;;;;;;59.85;31.23;;;;;;;10.96;46.65;98726.00;6138513;23;20067;-93
2023/03/08 21:07:07;;;;;;;37.13;20.33;;;;;;;11.02;45.93;98722.16;6114421;23;20080;-93
2023/03/08 21:09:33;;;;;;;40.47;15.70;;;;;;;11.03;46.11;98711.09;6136508;23;20495;-94
2023/03/08 21:11:59;;;;;;;16.85;7.93;;;;;;;10.97;45.33;98712.25;6113374;23;20067;-94
2023/03/08 21:14:24;;;;;;;31.58;12.57;;;;;;;10.87;45.57;98704.28;6138018;23;20455;-94
2023/03/08 21:16:55;;;;;;;15.25;9.60;;;;;;;10.90;45.67;98714.50;6113482;23;20017;-92
2023/03/08 21:19:22;;;;;;;20.17;9.45;;;;;;;10.95;44.89;98722.50;6114439;23;19997;-94
2023/03/08 21:21:49;;;;;;;19.48;10.95;;;;;;;10.82;45.87;98696.28;6112912;23;20059;-94
2023/03/08 21:24:45;;;;;;;36.55;19.92;;;;;;;10.84;46.25;98708.38;6122852;23;20004;-94
2023/03/08 21:27:29;;;;;;;34.15;16.65;;;;;;;11.01;46.94;98728.66;6153377;23;20042;-94
2023/03/08 21:30:29;;;;;;;41.80;11.70;;;;;;;10.82;46.90;98724.00;6132379;23;19997;-94
2023/03/08 21:33:12;;;;;;;14.80;7.57;;;;;;;10.76;46.96;98721.66;6156807;23;20015;-94
2023/03/08 21:36:04;;;;;;;18.95;7.68;;;;;;;10.51;46.42;98715.44;6130083;23;20028;-95
2023/03/08 21:38:55;;;;;;;;;;;;;;;;;;;;;
2023/03/08 21:41:33;;;;;;;26.05;10.25;;;;;;;10.50;46.87;98717.34;6157875;23;20001;-95
2023/03/08 21:44:24;;;;;;;22.65;11.30;;;;;;;10.45;47.33;98698.53;6129024;23;20033;-95
2023/03/08 21:47:21;;;;;;;15.48;8.65;;;;;;;10.48;47.58;98695.28;6131237;23;20001;-94
2023/03/08 21:50:07;;;;;;;22.17;9.30;;;;;;;10.61;47.01;98701.09;6066912;23;20002;-95
2023/03/08 21:53:04;;;;;;;19.67;9.82;;;;;;;10.69;46.70;98708.53;6071862;23;20022;-94
2023/03/08 21:56:36;;;;;;;14.77;8.10;;;;;;;10.61;46.54;98684.94;6015032;23;20003;-95
2023/03/08 21:59:22;;;;;;;21.58;10.07;;;;;;;10.61;47.28;98703.78;6025461;23;20003;-95
2023/03/08 22:02:43;;;;;;;26.55;10.73;;;;;;;10.55;47.30;98704.91;6001593;23;20011;-94
2023/03/08 22:05:20;;;;;;;22.42;10.50;;;;;;;10.56;47.77;98706.50;6024092;23;20008;-95
2023/03/08 22:08:28;;;;;;;28.33;10.60;;;;;;;10.64;46.87;98701.28;6002911;23;20026;-95
2023/03/08 22:11:29;;;;;;;23.95;10.65;;;;;;;10.56;47.41;98696.53;6021749;23;20008;-94
2023/03/08 22:14:20;;;;;;;23.60;10.10;;;;;;;10.60;47.53;98691.38;6043184;23;20003;-95
2023/03/08 22:16:55;;;;;;;15.65;9.10;;;;;;;10.71;47.22;98691.00;6065326;23;20018;-92
2023/03/08 22:19:29;;;;;;;15.43;10.07;;;;;;;10.70;47.21;98681.31;6064913;23;20013;-93
2023/03/08 22:22:13;;;;;;;25.42;9.82;;;;;;;10.78;47.50;98698.75;6061724;23;20580;-94
2023/03/08 22:29:58;;;;;;;16.25;9.85;;;;;;;10.34;49.07;98686.28;6169694;22;20023;-94
2023/03/08 22:32:46;;;;;;;24.02;9.55;;;;;;;10.15;49.75;98682.63;6126671;23;20036;-94
2023/03/08 22:35:20;;;;;;;23.83;10.63;;;;;;;10.05;49.69;98676.28;6095311;23;20014;-94
2023/03/08 22:38:09;;;;;;;15.68;9.68;;;;;;;9.85;50.02;98669.16;6097193;23;20013;-95
2023/03/08 22:40:52;;;;;;;26.00;9.60;;;;;;;9.91;50.21;98680.69;6120710;23;20058;-94
2023/03/08 22:46:46;;;;;;;19.67;9.43;;;;;;;9.89;49.96;98672.88;6135211;23;20001;-94
2023/03/08 22:49:26;;;;;;;19.45;9.45;;;;;;;9.81;50.20;98673.50;6122023;23;20033;-95
2023/03/08 22:52:07;;;;;;;16.15;9.52;;;;;;;9.84;50.04;98669.47;6120393;23;20001;-94
2023/03/08 22:54:57;;;;;;;;;;;;;;;;;;;;;
2023/03/08 22:57:54;;;;;;;;;;;;;;;;;;;;;
2023/03/08 23:00:55;;;;;;;17.55;8.43;;;;;;;9.38;51.40;98657.13;6127198;23;20017;-94
2023/03/08 23:03:23;;;;;;;15.15;8.23;;;;;;;9.46;50.84;98675.38;6123462;23;20031;-95
2023/03/08 23:06:06;;;;;;;17.02;8.63;;;;;;;9.30;51.32;98663.09;6092575;23;20005;-94
2023/03/08 23:09:05;;;;;;;13.52;7.47;;;;;;;9.41;50.80;98675.38;6122103;23;20001;-94
2023/03/08 23:11:43;;;;;;;16.92;7.93;;;;;;;9.47;51.13;98682.31;6141160;23;20085;-95
2023/03/08 23:14:55;;;;;;;21.85;8.98;;;;;;;9.35;51.25;98681.84;6119152;23;19998;-93
2023/03/08 23:18:08;;;;;;;;;;;;;;;;;;;;;
2023/03/08 23:20:55;;;;;;;17.23;7.97;;;;;;;9.19;52.24;98683.81;6140848;23;20021;-94
2023/03/08 23:23:35;;;;;;;14.93;8.43;;;;;;;9.17;52.02;98685.19;6100480;23;20072;-95
2023/03/08 23:26:31;;;;;;;23.38;8.88;;;;;;;9.14;53.07;98678.47;6096162;23;20020;-94
2023/03/08 23:29:26;;;;;;;18.25;8.30;;;;;;;9.17;52.36;98687.84;6157352;23;20025;-96
2023/03/08 23:32:31;;;;;;;18.70;8.57;;;;;;;9.11;52.89;98689.78;6154813;23;19997;-94